sensor_id;sensor_type;location;lat;lon;timestamp;P1;durP1;ratioP1;P2;durP2;ratioP2
17993;SDS011;9122;48.406;9.984;2023-11-19T00:00:09;7.60;;;6.57;;
17993;SDS011;9122;48.406;9.984;2023-11-19T00:02:58;7.23;;;6.60;;
17993;SDS011;9122;48.406;9.984;2023-11-19T00:05:42;8.77;;;6.47;;
17993;SDS011;9122;48.406;9.984;2023-11-19T00:08:28;6.57;;;5.97;;
17993;SDS011;9122;48.406;9.984;2023-11-19T00:11:12;6.33;;;5.77;;
17993;SDS011;9122;48.406;9.984;2023-11-19T00:13:59;6.93;;;6.23;;
17993;SDS011;9122;48.406;9.984;2023-11-19T00:16:43;9.97;;;6.07;;
17993;SDS011;9122;48.406;9.984;2023-11-19T00:19:28;6.37;;;5.87;;
17993;SDS011;9122;48.406;9.984;2023-11-19T00:22:12;8.07;;;6.17;;
17993;SDS011;9122;48.406;9.984;2023-11-19T00:24:57;7.10;;;6.40;;
17993;SDS011;9122;48.406;9.984;2023-11-19T00:27:41;6.83;;;6.23;;
17993;SDS011;9122;48.406;9.984;2023-11-19T00:30:28;6.40;;;5.80;;
17993;SDS011;9122;48.406;9.984;2023-11-19T00:33:15;7.17;;;6.00;;
17993;SDS011;9122;48.406;9.984;2023-11-19T00:35:59;7.07;;;6.37;;
17993;SDS011;9122;48.406;9.984;2023-11-19T00:38:43;7.80;;;7.00;;
17993;SDS011;9122;48.406;9.984;2023-11-19T00:41:28;7.27;;;6.53;;
17993;SDS011;9122;48.406;9.984;2023-11-19T00:44:13;6.60;;;5.80;;
17993;SDS011;9122;48.406;9.984;2023-11-19T00:46:57;7.33;;;6.67;;
17993;SDS011;9122;48.406;9.984;2023-11-19T00:49:44;6.43;;;5.83;;
17993;SDS011;9122;48.406;9.984;2023-11-19T00:52:30;7.03;;;6.33;;
17993;SDS011;9122;48.406;9.984;2023-11-19T00:55:15;7.10;;;6.50;;
17993;SDS011;9122;48.406;9.984;2023-11-19T00:57:59;8.67;;;7.03;;
17993;SDS011;9122;48.406;9.984;2023-11-19T01:00:43;8.90;;;7.77;;
17993;SDS011;9122;48.406;9.984;2023-11-19T01:03:28;7.67;;;6.77;;
17993;SDS011;9122;48.406;9.984;2023-11-19T01:06:13;8.10;;;6.77;;
17993;SDS011;9122;48.406;9.984;2023-11-19T01:08:59;7.40;;;6.60;;
17993;SDS011;9122;48.406;9.984;2023-11-19T01:11:44;7.80;;;7.00;;
17993;SDS011;9122;48.406;9.984;2023-11-19T01:14:28;7.13;;;6.53;;
17993;SDS011;9122;48.406;9.984;2023-11-19T01:17:14;7.43;;;6.83;;
17993;SDS011;9122;48.406;9.984;2023-11-19T01:19:59;7.27;;;6.67;;
17993;SDS011;9122;48.406;9.984;2023-11-19T01:22:43;7.47;;;6.87;;
17993;SDS011;9122;48.406;9.984;2023-11-19T01:25:28;6.80;;;6.20;;
17993;SDS011;9122;48.406;9.984;2023-11-19T01:28:13;7.33;;;6.63;;
17993;SDS011;9122;48.406;9.984;2023-11-19T01:30:57;6.40;;;5.90;;
17993;SDS011;9122;48.406;9.984;2023-11-19T01:33:42;6.30;;;5.80;;
17993;SDS011;9122;48.406;9.984;2023-11-19T01:36:26;7.30;;;6.67;;
17993;SDS011;9122;48.406;9.984;2023-11-19T01:39:11;7.27;;;6.67;;
17993;SDS011;9122;48.406;9.984;2023-11-19T01:41:55;6.80;;;6.10;;
17993;SDS011;9122;48.406;9.984;2023-11-19T01:44:39;6.90;;;6.23;;
17993;SDS011;9122;48.406;9.984;2023-11-19T01:47:25;7.10;;;6.40;;
17993;SDS011;9122;48.406;9.984;2023-11-19T01:50:10;6.83;;;6.23;;
17993;SDS011;9122;48.406;9.984;2023-11-19T01:52:55;7.03;;;6.33;;
17993;SDS011;9122;48.406;9.984;2023-11-19T01:55:41;6.93;;;6.27;;
17993;SDS011;9122;48.406;9.984;2023-11-19T01:58:26;7.30;;;6.07;;
17993;SDS011;9122;48.406;9.984;2023-11-19T02:01:13;7.47;;;6.80;;
17993;SDS011;9122;48.406;9.984;2023-11-19T02:03:58;7.17;;;6.50;;
17993;SDS011;9122;48.406;9.984;2023-11-19T02:06:42;8.23;;;6.83;;
17993;SDS011;9122;48.406;9.984;2023-11-19T02:09:27;7.10;;;6.40;;
17993;SDS011;9122;48.406;9.984;2023-11-19T02:12:12;7.70;;;6.93;;
17993;SDS011;9122;48.406;9.984;2023-11-19T02:14:57;7.37;;;6.77;;
17993;SDS011;9122;48.406;9.984;2023-11-19T02:17:43;7.13;;;6.53;;
17993;SDS011;9122;48.406;9.984;2023-11-19T02:20:27;8.10;;;7.30;;
17993;SDS011;9122;48.406;9.984;2023-11-19T02:23:13;8.53;;;6.70;;
17993;SDS011;9122;48.406;9.984;2023-11-19T02:29:22;7.93;;;7.13;;
17993;SDS011;9122;48.406;9.984;2023-11-19T02:32:06;8.27;;;6.90;;
17993;SDS011;9122;48.406;9.984;2023-11-19T02:34:52;6.70;;;6.07;;
17993;SDS011;9122;48.406;9.984;2023-11-19T02:37:38;7.10;;;6.50;;
17993;SDS011;9122;48.406;9.984;2023-11-19T02:40:22;6.57;;;5.97;;
17993;SDS011;9122;48.406;9.984;2023-11-19T02:43:10;6.33;;;5.83;;
17993;SDS011;9122;48.406;9.984;2023-11-19T02:45:55;5.27;;;4.87;;
17993;SDS011;9122;48.406;9.984;2023-11-19T02:48:39;6.03;;;5.53;;
17993;SDS011;9122;48.406;9.984;2023-11-19T02:51:25;5.80;;;5.33;;
17993;SDS011;9122;48.406;9.984;2023-11-19T02:54:11;5.13;;;4.73;;
17993;SDS011;9122;48.406;9.984;2023-11-19T02:56:56;5.00;;;4.47;;
17993;SDS011;9122;48.406;9.984;2023-11-19T02:59:43;5.23;;;4.83;;
17993;SDS011;9122;48.406;9.984;2023-11-19T03:02:27;5.70;;;5.30;;
17993;SDS011;9122;48.406;9.984;2023-11-19T03:05:17;4.93;;;4.63;;
17993;SDS011;9122;48.406;9.984;2023-11-19T03:08:03;4.60;;;4.30;;
17993;SDS011;9122;48.406;9.984;2023-11-19T03:10:48;4.50;;;4.20;;
17993;SDS011;9122;48.406;9.984;2023-11-19T03:13:33;4.47;;;4.07;;
17993;SDS011;9122;48.406;9.984;2023-11-19T03:16:17;4.83;;;4.43;;
17993;SDS011;9122;48.406;9.984;2023-11-19T03:19:02;4.30;;;4.00;;
17993;SDS011;9122;48.406;9.984;2023-11-19T03:21:48;4.50;;;4.20;;
17993;SDS011;9122;48.406;9.984;2023-11-19T03:24:32;4.40;;;4.10;;
17993;SDS011;9122;48.406;9.984;2023-11-19T03:27:16;4.27;;;3.97;;
17993;SDS011;9122;48.406;9.984;2023-11-19T03:30:00;4.47;;;4.17;;
17993;SDS011;9122;48.406;9.984;2023-11-19T03:32:45;4.40;;;4.10;;
17993;SDS011;9122;48.406;9.984;2023-11-19T03:35:29;4.17;;;3.87;;
17993;SDS011;9122;48.406;9.984;2023-11-19T03:38:14;4.33;;;4.03;;
17993;SDS011;9122;48.406;9.984;2023-11-19T03:40:58;4.70;;;4.40;;
17993;SDS011;9122;48.406;9.984;2023-11-19T03:43:42;4.00;;;3.70;;
17993;SDS011;9122;48.406;9.984;2023-11-19T03:46:26;3.90;;;3.60;;
17993;SDS011;9122;48.406;9.984;2023-11-19T03:49:11;4.30;;;4.00;;
17993;SDS011;9122;48.406;9.984;2023-11-19T03:51:55;4.57;;;4.17;;
17993;SDS011;9122;48.406;9.984;2023-11-19T03:54:39;4.10;;;3.80;;
17993;SDS011;9122;48.406;9.984;2023-11-19T03:57:23;4.30;;;4.00;;
17993;SDS011;9122;48.406;9.984;2023-11-19T04:00:08;4.40;;;4.10;;
17993;SDS011;9122;48.406;9.984;2023-11-19T04:02:53;4.37;;;4.00;;
17993;SDS011;9122;48.406;9.984;2023-11-19T04:05:38;4.03;;;3.73;;
17993;SDS011;9122;48.406;9.984;2023-11-19T04:08:22;4.43;;;4.03;;
17993;SDS011;9122;48.406;9.984;2023-11-19T04:11:07;4.10;;;3.80;;
17993;SDS011;9122;48.406;9.984;2023-11-19T04:13:52;4.57;;;4.27;;
17993;SDS011;9122;48.406;9.984;2023-11-19T04:16:36;4.03;;;3.73;;
17993;SDS011;9122;48.406;9.984;2023-11-19T04:19:20;4.97;;;4.27;;
17993;SDS011;9122;48.406;9.984;2023-11-19T04:22:05;4.80;;;4.40;;
17993;SDS011;9122;48.406;9.984;2023-11-19T04:24:49;5.37;;;4.87;;
17993;SDS011;9122;48.406;9.984;2023-11-19T04:27:33;4.80;;;4.40;;
17993;SDS011;9122;48.406;9.984;2023-11-19T04:30:17;5.10;;;4.67;;
17993;SDS011;9122;48.406;9.984;2023-11-19T04:33:02;4.87;;;4.47;;
17993;SDS011;9122;48.406;9.984;2023-11-19T04:35:46;5.87;;;5.20;;
17993;SDS011;9122;48.406;9.984;2023-11-19T04:38:30;5.20;;;4.80;;
17993;SDS011;9122;48.406;9.984;2023-11-19T04:41:14;6.10;;;5.50;;
17993;SDS011;9122;48.406;9.984;2023-11-19T04:43:58;5.67;;;5.10;;
17993;SDS011;9122;48.406;9.984;2023-11-19T04:46:43;6.63;;;5.97;;
17993;SDS011;9122;48.406;9.984;2023-11-19T04:49:28;6.80;;;6.20;;
17993;SDS011;9122;48.406;9.984;2023-11-19T04:52:14;7.80;;;6.97;;
17993;SDS011;9122;48.406;9.984;2023-11-19T04:54:58;7.90;;;7.13;;
17993;SDS011;9122;48.406;9.984;2023-11-19T04:57:43;9.33;;;7.63;;
17993;SDS011;9122;48.406;9.984;2023-11-19T05:00:27;9.27;;;8.13;;
17993;SDS011;9122;48.406;9.984;2023-11-19T05:03:12;8.73;;;7.90;;
17993;SDS011;9122;48.406;9.984;2023-11-19T05:05:56;9.97;;;9.07;;
17993;SDS011;9122;48.406;9.984;2023-11-19T05:08:41;9.40;;;8.47;;
17993;SDS011;9122;48.406;9.984;2023-11-19T05:11:26;9.60;;;8.53;;
17993;SDS011;9122;48.406;9.984;2023-11-19T05:14:11;10.17;;;8.73;;
17993;SDS011;9122;48.406;9.984;2023-11-19T05:16:56;10.60;;;9.63;;
17993;SDS011;9122;48.406;9.984;2023-11-19T05:19:40;9.67;;;8.63;;
17993;SDS011;9122;48.406;9.984;2023-11-19T05:22:24;9.43;;;8.57;;
17993;SDS011;9122;48.406;9.984;2023-11-19T05:25:09;10.20;;;9.07;;
17993;SDS011;9122;48.406;9.984;2023-11-19T05:27:54;10.13;;;9.13;;
17993;SDS011;9122;48.406;9.984;2023-11-19T05:30:39;8.67;;;7.87;;
17993;SDS011;9122;48.406;9.984;2023-11-19T05:33:23;9.83;;;8.80;;
17993;SDS011;9122;48.406;9.984;2023-11-19T05:36:07;8.90;;;8.00;;
17993;SDS011;9122;48.406;9.984;2023-11-19T05:38:52;9.03;;;8.23;;
17993;SDS011;9122;48.406;9.984;2023-11-19T05:41:36;8.83;;;8.00;;
17993;SDS011;9122;48.406;9.984;2023-11-19T05:44:21;8.47;;;7.67;;
17993;SDS011;9122;48.406;9.984;2023-11-19T05:47:06;9.03;;;8.23;;
17993;SDS011;9122;48.406;9.984;2023-11-19T05:49:50;8.30;;;7.50;;
17993;SDS011;9122;48.406;9.984;2023-11-19T05:52:34;8.37;;;7.57;;
17993;SDS011;9122;48.406;9.984;2023-11-19T05:55:19;8.07;;;7.37;;
17993;SDS011;9122;48.406;9.984;2023-11-19T05:58:03;8.13;;;7.33;;
17993;SDS011;9122;48.406;9.984;2023-11-19T06:00:50;7.63;;;6.93;;
17993;SDS011;9122;48.406;9.984;2023-11-19T06:03:35;7.57;;;6.97;;
17993;SDS011;9122;48.406;9.984;2023-11-19T06:06:20;7.47;;;6.77;;
17993;SDS011;9122;48.406;9.984;2023-11-19T06:09:04;6.93;;;6.30;;
17993;SDS011;9122;48.406;9.984;2023-11-19T06:11:50;7.23;;;6.63;;
17993;SDS011;9122;48.406;9.984;2023-11-19T06:14:35;7.30;;;6.70;;
17993;SDS011;9122;48.406;9.984;2023-11-19T06:17:19;6.57;;;6.03;;
17993;SDS011;9122;48.406;9.984;2023-11-19T06:20:04;6.33;;;5.83;;
17993;SDS011;9122;48.406;9.984;2023-11-19T06:22:49;6.80;;;6.20;;
17993;SDS011;9122;48.406;9.984;2023-11-19T06:25:34;7.80;;;7.20;;
17993;SDS011;9122;48.406;9.984;2023-11-19T06:28:19;7.73;;;7.03;;
17993;SDS011;9122;48.406;9.984;2023-11-19T06:31:03;8.30;;;7.50;;
17993;SDS011;9122;48.406;9.984;2023-11-19T06:33:48;6.83;;;6.23;;
17993;SDS011;9122;48.406;9.984;2023-11-19T06:36:33;7.47;;;6.77;;
17993;SDS011;9122;48.406;9.984;2023-11-19T06:39:17;6.77;;;6.27;;
17993;SDS011;9122;48.406;9.984;2023-11-19T06:42:02;6.23;;;5.73;;
17993;SDS011;9122;48.406;9.984;2023-11-19T06:44:47;6.43;;;5.93;;
17993;SDS011;9122;48.406;9.984;2023-11-19T06:47:31;6.37;;;5.87;;
17993;SDS011;9122;48.406;9.984;2023-11-19T06:50:15;5.50;;;5.10;;
17993;SDS011;9122;48.406;9.984;2023-11-19T06:53:00;6.23;;;5.73;;
17993;SDS011;9122;48.406;9.984;2023-11-19T06:55:44;6.23;;;5.63;;
17993;SDS011;9122;48.406;9.984;2023-11-19T06:58:29;6.93;;;6.33;;
17993;SDS011;9122;48.406;9.984;2023-11-19T07:01:14;6.40;;;5.90;;
17993;SDS011;9122;48.406;9.984;2023-11-19T07:03:59;6.83;;;6.23;;
17993;SDS011;9122;48.406;9.984;2023-11-19T07:06:44;6.40;;;5.80;;
17993;SDS011;9122;48.406;9.984;2023-11-19T07:09:28;6.97;;;6.33;;
17993;SDS011;9122;48.406;9.984;2023-11-19T07:12:13;7.13;;;6.53;;
17993;SDS011;9122;48.406;9.984;2023-11-19T07:14:58;7.27;;;6.57;;
17993;SDS011;9122;48.406;9.984;2023-11-19T07:17:42;6.90;;;6.40;;
17993;SDS011;9122;48.406;9.984;2023-11-19T07:20:28;7.60;;;6.80;;
17993;SDS011;9122;48.406;9.984;2023-11-19T07:23:13;7.43;;;6.80;;
17993;SDS011;9122;48.406;9.984;2023-11-19T07:26:00;9.00;;;6.97;;
17993;SDS011;9122;48.406;9.984;2023-11-19T07:28:45;10.27;;;8.57;;
17993;SDS011;9122;48.406;9.984;2023-11-19T07:31:29;8.83;;;7.97;;
17993;SDS011;9122;48.406;9.984;2023-11-19T07:34:14;7.67;;;6.97;;
17993;SDS011;9122;48.406;9.984;2023-11-19T07:36:58;8.93;;;7.87;;
17993;SDS011;9122;48.406;9.984;2023-11-19T07:39:46;8.40;;;7.47;;
17993;SDS011;9122;48.406;9.984;2023-11-19T07:42:33;8.20;;;7.50;;
17993;SDS011;9122;48.406;9.984;2023-11-19T07:45:17;8.13;;;7.33;;
17993;SDS011;9122;48.406;9.984;2023-11-19T07:48:03;8.33;;;7.63;;
17993;SDS011;9122;48.406;9.984;2023-11-19T07:50:48;7.03;;;6.30;;
17993;SDS011;9122;48.406;9.984;2023-11-19T07:53:33;8.03;;;7.30;;
17993;SDS011;9122;48.406;9.984;2023-11-19T07:56:19;9.13;;;8.20;;
17993;SDS011;9122;48.406;9.984;2023-11-19T07:59:03;8.03;;;7.23;;
17993;SDS011;9122;48.406;9.984;2023-11-19T08:01:48;8.93;;;7.90;;
17993;SDS011;9122;48.406;9.984;2023-11-19T08:04:33;7.77;;;7.07;;
17993;SDS011;9122;48.406;9.984;2023-11-19T08:07:18;7.67;;;6.97;;
17993;SDS011;9122;48.406;9.984;2023-11-19T08:10:04;7.60;;;6.90;;
17993;SDS011;9122;48.406;9.984;2023-11-19T08:12:49;8.30;;;7.50;;
17993;SDS011;9122;48.406;9.984;2023-11-19T08:15:34;7.40;;;6.73;;
17993;SDS011;9122;48.406;9.984;2023-11-19T08:18:18;7.20;;;6.50;;
17993;SDS011;9122;48.406;9.984;2023-11-19T08:21:03;7.97;;;7.17;;
17993;SDS011;9122;48.406;9.984;2023-11-19T08:23:48;6.73;;;6.13;;
17993;SDS011;9122;48.406;9.984;2023-11-19T08:26:33;6.80;;;6.30;;
17993;SDS011;9122;48.406;9.984;2023-11-19T08:29:17;7.33;;;6.63;;
17993;SDS011;9122;48.406;9.984;2023-11-19T08:32:02;6.53;;;6.03;;
17993;SDS011;9122;48.406;9.984;2023-11-19T08:34:47;6.37;;;5.87;;
17993;SDS011;9122;48.406;9.984;2023-11-19T08:37:31;7.07;;;6.47;;
17993;SDS011;9122;48.406;9.984;2023-11-19T08:40:15;6.07;;;5.63;;
17993;SDS011;9122;48.406;9.984;2023-11-19T08:42:59;6.13;;;5.67;;
17993;SDS011;9122;48.406;9.984;2023-11-19T08:45:44;6.90;;;6.30;;
17993;SDS011;9122;48.406;9.984;2023-11-19T08:48:28;7.63;;;6.93;;
17993;SDS011;9122;48.406;9.984;2023-11-19T08:51:12;6.80;;;6.20;;
17993;SDS011;9122;48.406;9.984;2023-11-19T08:53:57;6.70;;;6.10;;
17993;SDS011;9122;48.406;9.984;2023-11-19T08:56:41;7.03;;;6.30;;
17993;SDS011;9122;48.406;9.984;2023-11-19T08:59:26;7.07;;;6.43;;
17993;SDS011;9122;48.406;9.984;2023-11-19T09:02:10;7.87;;;7.17;;
17993;SDS011;9122;48.406;9.984;2023-11-19T09:04:55;9.13;;;8.23;;
17993;SDS011;9122;48.406;9.984;2023-11-19T09:07:39;8.00;;;7.20;;
17993;SDS011;9122;48.406;9.984;2023-11-19T09:10:24;8.43;;;7.63;;
17993;SDS011;9122;48.406;9.984;2023-11-19T09:13:09;9.27;;;8.00;;
17993;SDS011;9122;48.406;9.984;2023-11-19T09:15:53;7.97;;;6.60;;
17993;SDS011;9122;48.406;9.984;2023-11-19T09:18:37;8.10;;;6.50;;
17993;SDS011;9122;48.406;9.984;2023-11-19T09:21:22;7.13;;;6.43;;
17993;SDS011;9122;48.406;9.984;2023-11-19T09:24:06;6.00;;;5.50;;
17993;SDS011;9122;48.406;9.984;2023-11-19T09:26:51;6.77;;;6.07;;
17993;SDS011;9122;48.406;9.984;2023-11-19T09:29:36;6.57;;;5.93;;
17993;SDS011;9122;48.406;9.984;2023-11-19T09:32:20;6.83;;;6.13;;
17993;SDS011;9122;48.406;9.984;2023-11-19T09:35:05;7.20;;;6.30;;
17993;SDS011;9122;48.406;9.984;2023-11-19T09:37:50;7.97;;;6.27;;
17993;SDS011;9122;48.406;9.984;2023-11-19T09:40:35;5.67;;;5.07;;
17993;SDS011;9122;48.406;9.984;2023-11-19T09:43:22;5.30;;;4.90;;
17993;SDS011;9122;48.406;9.984;2023-11-19T09:46:06;5.33;;;4.83;;
17993;SDS011;9122;48.406;9.984;2023-11-19T09:48:55;4.43;;;4.03;;
17993;SDS011;9122;48.406;9.984;2023-11-19T09:51:40;4.00;;;3.70;;
17993;SDS011;9122;48.406;9.984;2023-11-19T09:54:25;4.17;;;3.87;;
17993;SDS011;9122;48.406;9.984;2023-11-19T09:57:10;3.93;;;3.63;;
17993;SDS011;9122;48.406;9.984;2023-11-19T09:59:56;3.80;;;3.50;;
17993;SDS011;9122;48.406;9.984;2023-11-19T10:02:42;3.60;;;3.40;;
17993;SDS011;9122;48.406;9.984;2023-11-19T10:05:29;4.23;;;3.93;;
17993;SDS011;9122;48.406;9.984;2023-11-19T10:08:14;4.10;;;3.80;;
17993;SDS011;9122;48.406;9.984;2023-11-19T10:10:59;4.30;;;4.00;;
17993;SDS011;9122;48.406;9.984;2023-11-19T10:13:44;4.00;;;3.70;;
17993;SDS011;9122;48.406;9.984;2023-11-19T10:16:31;3.43;;;3.20;;
17993;SDS011;9122;48.406;9.984;2023-11-19T10:19:19;4.40;;;4.00;;
17993;SDS011;9122;48.406;9.984;2023-11-19T10:22:04;3.50;;;3.30;;
17993;SDS011;9122;48.406;9.984;2023-11-19T10:24:49;3.30;;;2.83;;
17993;SDS011;9122;48.406;9.984;2023-11-19T10:27:34;3.60;;;3.30;;
17993;SDS011;9122;48.406;9.984;2023-11-19T10:30:22;3.93;;;3.63;;
17993;SDS011;9122;48.406;9.984;2023-11-19T10:33:14;2.90;;;2.70;;
17993;SDS011;9122;48.406;9.984;2023-11-19T10:36:00;4.03;;;3.73;;
17993;SDS011;9122;48.406;9.984;2023-11-19T10:38:52;3.10;;;2.90;;
17993;SDS011;9122;48.406;9.984;2023-11-19T10:41:37;2.57;;;2.37;;
17993;SDS011;9122;48.406;9.984;2023-11-19T10:44:31;3.00;;;2.80;;
17993;SDS011;9122;48.406;9.984;2023-11-19T10:47:23;2.90;;;2.70;;
17993;SDS011;9122;48.406;9.984;2023-11-19T10:50:08;2.87;;;2.67;;
17993;SDS011;9122;48.406;9.984;2023-11-19T10:52:59;3.33;;;3.13;;
17993;SDS011;9122;48.406;9.984;2023-11-19T10:56:02;2.93;;;2.77;;
17993;SDS011;9122;48.406;9.984;2023-11-19T10:58:52;2.37;;;2.17;;
17993;SDS011;9122;48.406;9.984;2023-11-19T11:01:45;2.47;;;2.27;;
17993;SDS011;9122;48.406;9.984;2023-11-19T11:04:30;2.37;;;2.27;;
17993;SDS011;9122;48.406;9.984;2023-11-19T11:07:17;2.80;;;2.40;;
17993;SDS011;9122;48.406;9.984;2023-11-19T11:10:07;1.80;;;1.70;;
17993;SDS011;9122;48.406;9.984;2023-11-19T11:12:52;2.10;;;2.00;;
17993;SDS011;9122;48.406;9.984;2023-11-19T11:15:42;1.80;;;1.70;;
17993;SDS011;9122;48.406;9.984;2023-11-19T11:18:27;2.47;;;2.27;;
17993;SDS011;9122;48.406;9.984;2023-11-19T11:21:20;3.43;;;2.33;;
17993;SDS011;9122;48.406;9.984;2023-11-19T11:36:20;3.40;;;3.20;;
17993;SDS011;9122;48.406;9.984;2023-11-19T11:39:06;4.23;;;3.93;;
17993;SDS011;9122;48.406;9.984;2023-11-19T11:45:05;2.40;;;2.30;;
17993;SDS011;9122;48.406;9.984;2023-11-19T11:50:50;2.60;;;2.40;;
17993;SDS011;9122;48.406;9.984;2023-11-19T11:53:35;2.57;;;2.13;;
17993;SDS011;9122;48.406;9.984;2023-11-19T11:56:20;2.13;;;2.03;;
17993;SDS011;9122;48.406;9.984;2023-11-19T11:59:08;2.43;;;2.00;;
17993;SDS011;9122;48.406;9.984;2023-11-19T12:02:03;2.23;;;1.90;;
17993;SDS011;9122;48.406;9.984;2023-11-19T12:04:51;2.60;;;2.40;;
17993;SDS011;9122;48.406;9.984;2023-11-19T12:07:36;2.60;;;2.40;;
17993;SDS011;9122;48.406;9.984;2023-11-19T12:10:23;2.63;;;2.43;;
17993;SDS011;9122;48.406;9.984;2023-11-19T12:13:08;2.20;;;2.07;;
17993;SDS011;9122;48.406;9.984;2023-11-19T12:18:40;1.93;;;1.83;;
17993;SDS011;9122;48.406;9.984;2023-11-19T12:21:29;2.07;;;1.87;;
17993;SDS011;9122;48.406;9.984;2023-11-19T12:24:14;1.70;;;1.60;;
17993;SDS011;9122;48.406;9.984;2023-11-19T12:26:59;2.30;;;1.67;;
17993;SDS011;9122;48.406;9.984;2023-11-19T12:29:44;1.50;;;1.40;;
17993;SDS011;9122;48.406;9.984;2023-11-19T12:32:36;1.30;;;1.30;;
17993;SDS011;9122;48.406;9.984;2023-11-19T12:35:24;1.23;;;1.13;;
17993;SDS011;9122;48.406;9.984;2023-11-19T12:38:23;1.10;;;1.10;;
17993;SDS011;9122;48.406;9.984;2023-11-19T12:41:09;1.07;;;1.00;;
17993;SDS011;9122;48.406;9.984;2023-11-19T12:44:10;1.47;;;1.37;;
17993;SDS011;9122;48.406;9.984;2023-11-19T12:46:59;1.80;;;1.30;;
17993;SDS011;9122;48.406;9.984;2023-11-19T12:49:55;1.10;;;1.00;;
17993;SDS011;9122;48.406;9.984;2023-11-19T12:52:42;1.20;;;1.10;;
17993;SDS011;9122;48.406;9.984;2023-11-19T12:55:27;1.10;;;1.10;;
17993;SDS011;9122;48.406;9.984;2023-11-19T12:58:31;1.00;;;1.00;;
17993;SDS011;9122;48.406;9.984;2023-11-19T13:01:17;1.60;;;1.50;;
17993;SDS011;9122;48.406;9.984;2023-11-19T13:04:14;1.30;;;1.20;;
17993;SDS011;9122;48.406;9.984;2023-11-19T13:07:01;1.10;;;1.10;;
17993;SDS011;9122;48.406;9.984;2023-11-19T13:09:48;1.53;;;1.43;;
17993;SDS011;9122;48.406;9.984;2023-11-19T13:12:33;1.50;;;1.40;;
17993;SDS011;9122;48.406;9.984;2023-11-19T13:15:23;1.40;;;1.30;;
17993;SDS011;9122;48.406;9.984;2023-11-19T13:18:08;1.63;;;1.53;;
17993;SDS011;9122;48.406;9.984;2023-11-19T13:20:53;1.13;;;1.13;;
17993;SDS011;9122;48.406;9.984;2023-11-19T13:23:41;1.50;;;1.40;;
17993;SDS011;9122;48.406;9.984;2023-11-19T13:26:26;1.33;;;1.33;;
17993;SDS011;9122;48.406;9.984;2023-11-19T13:29:11;1.77;;;1.67;;
17993;SDS011;9122;48.406;9.984;2023-11-19T13:31:55;1.90;;;1.80;;
17993;SDS011;9122;48.406;9.984;2023-11-19T13:34:40;1.70;;;1.60;;
17993;SDS011;9122;48.406;9.984;2023-11-19T13:37:24;1.50;;;1.40;;
17993;SDS011;9122;48.406;9.984;2023-11-19T13:40:09;1.43;;;1.40;;
17993;SDS011;9122;48.406;9.984;2023-11-19T13:42:56;1.50;;;1.40;;
17993;SDS011;9122;48.406;9.984;2023-11-19T13:45:41;1.33;;;1.23;;
17993;SDS011;9122;48.406;9.984;2023-11-19T13:48:26;2.03;;;1.17;;
17993;SDS011;9122;48.406;9.984;2023-11-19T13:51:12;1.80;;;1.30;;
17993;SDS011;9122;48.406;9.984;2023-11-19T13:53:57;1.20;;;1.20;;
17993;SDS011;9122;48.406;9.984;2023-11-19T13:56:42;0.93;;;0.93;;
17993;SDS011;9122;48.406;9.984;2023-11-19T13:59:28;1.27;;;1.17;;
17993;SDS011;9122;48.406;9.984;2023-11-19T14:02:13;1.27;;;1.17;;
17993;SDS011;9122;48.406;9.984;2023-11-19T14:04:57;1.37;;;1.30;;
17993;SDS011;9122;48.406;9.984;2023-11-19T14:07:42;1.00;;;1.00;;
17993;SDS011;9122;48.406;9.984;2023-11-19T14:10:27;0.80;;;0.80;;
17993;SDS011;9122;48.406;9.984;2023-11-19T14:13:12;1.07;;;1.00;;
17993;SDS011;9122;48.406;9.984;2023-11-19T14:15:59;1.37;;;0.70;;
17993;SDS011;9122;48.406;9.984;2023-11-19T14:18:44;0.70;;;0.70;;
17993;SDS011;9122;48.406;9.984;2023-11-19T14:21:29;0.60;;;0.60;;
17993;SDS011;9122;48.406;9.984;2023-11-19T14:24:14;0.70;;;0.70;;
17993;SDS011;9122;48.406;9.984;2023-11-19T14:26:58;1.20;;;1.10;;
17993;SDS011;9122;48.406;9.984;2023-11-19T14:29:43;1.00;;;1.00;;
17993;SDS011;9122;48.406;9.984;2023-11-19T14:32:28;1.13;;;0.90;;
17993;SDS011;9122;48.406;9.984;2023-11-19T14:35:12;1.03;;;1.03;;
17993;SDS011;9122;48.406;9.984;2023-11-19T14:37:57;0.90;;;0.90;;
17993;SDS011;9122;48.406;9.984;2023-11-19T14:40:41;2.03;;;1.23;;
17993;SDS011;9122;48.406;9.984;2023-11-19T14:43:26;1.20;;;1.20;;
17993;SDS011;9122;48.406;9.984;2023-11-19T14:46:10;1.73;;;1.20;;
17993;SDS011;9122;48.406;9.984;2023-11-19T14:48:55;1.47;;;1.27;;
17993;SDS011;9122;48.406;9.984;2023-11-19T14:51:39;1.57;;;1.43;;
17993;SDS011;9122;48.406;9.984;2023-11-19T14:54:24;2.77;;;1.40;;
17993;SDS011;9122;48.406;9.984;2023-11-19T14:57:09;1.50;;;1.40;;
17993;SDS011;9122;48.406;9.984;2023-11-19T14:59:54;1.40;;;1.37;;
17993;SDS011;9122;48.406;9.984;2023-11-19T15:02:41;1.50;;;1.40;;
17993;SDS011;9122;48.406;9.984;2023-11-19T15:05:25;4.70;;;2.10;;
17993;SDS011;9122;48.406;9.984;2023-11-19T15:08:12;1.50;;;1.40;;
17993;SDS011;9122;48.406;9.984;2023-11-19T15:10:57;1.57;;;1.47;;
17993;SDS011;9122;48.406;9.984;2023-11-19T15:13:43;1.17;;;1.10;;
17993;SDS011;9122;48.406;9.984;2023-11-19T15:16:28;1.27;;;1.27;;
17993;SDS011;9122;48.406;9.984;2023-11-19T15:19:17;1.30;;;1.20;;
17993;SDS011;9122;48.406;9.984;2023-11-19T15:22:03;2.10;;;1.60;;
17993;SDS011;9122;48.406;9.984;2023-11-19T15:24:49;1.27;;;1.27;;
17993;SDS011;9122;48.406;9.984;2023-11-19T15:27:33;1.63;;;1.53;;
17993;SDS011;9122;48.406;9.984;2023-11-19T15:30:17;1.70;;;1.60;;
17993;SDS011;9122;48.406;9.984;2023-11-19T15:33:02;1.57;;;1.47;;
17993;SDS011;9122;48.406;9.984;2023-11-19T15:35:46;1.43;;;1.37;;
17993;SDS011;9122;48.406;9.984;2023-11-19T15:38:31;2.17;;;1.57;;
17993;SDS011;9122;48.406;9.984;2023-11-19T15:41:15;1.60;;;1.50;;
17993;SDS011;9122;48.406;9.984;2023-11-19T15:44:00;1.27;;;1.17;;
17993;SDS011;9122;48.406;9.984;2023-11-19T15:46:47;1.93;;;1.57;;
17993;SDS011;9122;48.406;9.984;2023-11-19T15:49:31;1.33;;;1.20;;
17993;SDS011;9122;48.406;9.984;2023-11-19T15:52:50;1.20;;;1.10;;
17993;SDS011;9122;48.406;9.984;2023-11-19T15:55:28;1.53;;;1.43;;
17993;SDS011;9122;48.406;9.984;2023-11-19T15:58:13;1.20;;;1.20;;
17993;SDS011;9122;48.406;9.984;2023-11-19T16:00:57;1.13;;;1.13;;
17993;SDS011;9122;48.406;9.984;2023-11-19T16:03:41;0.90;;;0.90;;
17993;SDS011;9122;48.406;9.984;2023-11-19T16:06:26;1.20;;;1.00;;
17993;SDS011;9122;48.406;9.984;2023-11-19T16:09:11;1.30;;;1.20;;
17993;SDS011;9122;48.406;9.984;2023-11-19T16:11:58;0.67;;;0.67;;
17993;SDS011;9122;48.406;9.984;2023-11-19T16:14:43;1.80;;;1.03;;
17993;SDS011;9122;48.406;9.984;2023-11-19T16:17:27;0.70;;;0.70;;
17993;SDS011;9122;48.406;9.984;2023-11-19T16:20:13;0.60;;;0.60;;
17993;SDS011;9122;48.406;9.984;2023-11-19T16:22:57;1.00;;;1.00;;
17993;SDS011;9122;48.406;9.984;2023-11-19T16:25:44;0.90;;;0.90;;
17993;SDS011;9122;48.406;9.984;2023-11-19T16:28:28;0.90;;;0.90;;
17993;SDS011;9122;48.406;9.984;2023-11-19T16:31:14;0.83;;;0.83;;
17993;SDS011;9122;48.406;9.984;2023-11-19T16:33:58;1.20;;;0.97;;
17993;SDS011;9122;48.406;9.984;2023-11-19T16:36:44;1.87;;;1.23;;
17993;SDS011;9122;48.406;9.984;2023-11-19T16:39:28;1.13;;;1.13;;
17993;SDS011;9122;48.406;9.984;2023-11-19T16:42:13;2.77;;;1.00;;
17993;SDS011;9122;48.406;9.984;2023-11-19T16:44:59;0.93;;;0.93;;
17993;SDS011;9122;48.406;9.984;2023-11-19T16:47:48;1.37;;;1.27;;
17993;SDS011;9122;48.406;9.984;2023-11-19T16:50:32;1.50;;;1.40;;
17993;SDS011;9122;48.406;9.984;2023-11-19T16:53:17;1.27;;;1.17;;
17993;SDS011;9122;48.406;9.984;2023-11-19T16:56:02;1.93;;;1.50;;
17993;SDS011;9122;48.406;9.984;2023-11-19T16:58:50;1.53;;;1.43;;
17993;SDS011;9122;48.406;9.984;2023-11-19T17:01:34;1.50;;;1.40;;
17993;SDS011;9122;48.406;9.984;2023-11-19T17:04:20;2.03;;;1.93;;
17993;SDS011;9122;48.406;9.984;2023-11-19T17:07:04;1.40;;;1.30;;
17993;SDS011;9122;48.406;9.984;2023-11-19T17:09:48;1.00;;;1.00;;
17993;SDS011;9122;48.406;9.984;2023-11-19T17:12:33;1.43;;;1.27;;
17993;SDS011;9122;48.406;9.984;2023-11-19T17:15:18;2.77;;;1.60;;